Time;durP1;ratioP1;P1;durP2;ratioP2;P2;SDS_P1;SDS_P2;PMS_P1;PMS_P2;Temp;Humidity;BMP_temperature;BMP_pressure;BME280_temperature;BME280_humidity;BME280_pressure;Samples;Min_cycle;Max_cycle;Signal;HPM_P1;HPM_P2
2021/06/14 00:02:00;;;;;;;;;;;13.10;99.90;;;;;;5113362;28;20040;-74
2021/06/14 00:04:26;;;;;;;14.63;9.35;;;13.10;99.90;;;;;;5093270;28;19923;-75
2021/06/14 00:06:52;;;;;;;13.30;8.93;;;13.00;99.90;;;;;;5112177;28;20494;-74
2021/06/14 00:09:21;;;;;;;12.30;8.35;;;13.10;99.90;;;;;;5093232;28;20430;-73
2021/06/14 00:11:48;;;;;;;14.77;9.38;;;13.10;99.90;;;;;;5111196;28;20059;-73
2021/06/14 00:14:13;;;;;;;;;;;13.00;99.90;;;;;;5112212;28;20110;-75
2021/06/14 00:16:39;;;;;;;16.27;8.63;;;13.00;99.90;;;;;;5112628;28;20054;-72
2021/06/14 00:19:07;;;;;;;14.88;8.93;;;13.00;99.90;;;;;;5112851;28;20074;-76
2021/06/14 00:21:36;;;;;;;13.82;8.70;;;12.90;99.90;;;;;;5093863;28;20040;-73
2021/06/14 00:24:03;;;;;;;13.30;9.38;;;12.90;99.90;;;;;;5094039;28;20412;-75
2021/06/14 00:26:29;;;;;;;18.55;9.30;;;12.90;99.90;;;;;;5109897;28;20164;-75
2021/06/14 00:28:55;;;;;;;14.48;9.10;;;12.90;99.90;;;;;;5101942;28;20467;-74
2021/06/14 00:31:21;;;;;;;17.13;9.48;;;12.90;99.90;;;;;;5093599;28;20048;-72
2021/06/14 00:33:46;;;;;;;15.70;9.18;;;12.80;99.90;;;;;;5111923;28;20070;-75
2021/06/14 00:36:12;;;;;;;14.80;8.63;;;12.80;99.90;;;;;;5111405;28;20050;-73
2021/06/14 00:38:39;;;;;;;19.55;9.77;;;12.80;99.90;;;;;;5112236;28;20043;-75
2021/06/14 00:41:06;;;;;;;15.57;10.32;;;12.80;99.90;;;;;;5110274;28;20040;-74
2021/06/14 00:43:36;;;;;;;12.70;8.85;;;12.80;99.90;;;;;;5111514;28;20038;-73
2021/06/14 00:46:02;;;;;;;14.98;9.20;;;12.80;99.90;;;;;;5108903;28;20032;-72
2021/06/14 00:48:28;;;;;;;17.33;9.75;;;12.70;99.90;;;;;;5110858;28;20396;-74
2021/06/14 00:50:53;;;;;;;;;;;12.70;99.90;;;;;;5093869;28;20043;-74
2021/06/14 00:53:26;;;;;;;16.58;9.40;;;12.70;99.90;;;;;;5111373;28;19923;-75
2021/06/14 00:55:52;;;;;;;19.25;9.95;;;12.70;99.90;;;;;;5108135;28;20108;-75
2021/06/14 00:58:19;;;;;;;16.15;9.50;;;12.60;99.90;;;;;;5111061;28;20039;-74
2021/06/14 01:00:45;;;;;;;15.27;9.32;;;12.60;99.90;;;;;;5104115;28;20119;-77
2021/06/14 01:03:12;;;;;;;17.65;10.30;;;12.50;99.90;;;;;;5111490;28;20035;-75
2021/06/14 01:05:44;;;;;;;18.80;10.27;;;12.60;99.90;;;;;;5111176;28;20066;-75
2021/06/14 01:08:11;;;;;;;15.18;9.63;;;12.50;99.90;;;;;;5111502;28;20535;-75
2021/06/14 01:10:38;;;;;;;13.50;9.55;;;12.50;99.90;;;;;;5113804;28;20338;-73
2021/06/14 01:13:29;;;;;;;18.17;11.10;;;12.50;99.90;;;;;;5080448;28;20032;-76
2021/06/14 01:15:55;;;;;;;15.75;9.57;;;12.50;99.90;;;;;;5097237;28;20389;-74
2021/06/14 01:18:51;;;;;;;15.80;9.93;;;12.40;99.90;;;;;;5114742;28;20047;-75
2021/06/14 01:21:28;;;;;;;20.55;10.35;;;12.40;99.90;;;;;;5114456;28;20101;-74
2021/06/14 01:24:31;;;;;;;17.75;10.60;;;12.40;99.90;;;;;;5115483;28;20038;-75
2021/06/14 01:27:01;;;;;;;18.40;10.90;;;12.40;99.90;;;;;;5105025;28;20481;-73
2021/06/14 01:29:28;;;;;;;20.50;10.90;;;12.30;99.90;;;;;;5114738;28;20046;-75
2021/06/14 01:31:57;;;;;;;19.90;10.35;;;12.30;99.90;;;;;;5080041;28;20174;-75
2021/06/14 01:34:28;;;;;;;16.60;10.07;;;12.40;99.90;;;;;;5113523;28;20042;-73
2021/06/14 01:36:57;;;;;;;19.38;10.75;;;12.40;99.90;;;;;;5115106;28;20047;-74
2021/06/14 01:39:25;;;;;;;18.08;10.63;;;12.40;99.90;;;;;;5114054;28;20035;-75
2021/06/14 01:41:54;;;;;;;16.70;9.55;;;12.40;99.90;;;;;;5114224;28;20040;-72
2021/06/14 01:44:22;;;;;;;14.73;9.63;;;12.50;99.90;;;;;;5114195;28;20039;-74
2021/06/14 01:46:49;;;;;;;17.67;10.02;;;12.50;99.90;;;;;;5115229;28;20032;-74
2021/06/14 01:49:16;;;;;;;15.07;9.68;;;12.50;99.90;;;;;;5097039;28;20353;-73
2021/06/14 01:51:42;;;;;;;14.02;9.13;;;12.50;99.90;;;;;;5114641;28;20079;-73
2021/06/14 01:54:08;;;;;;;;;;;12.60;99.90;;;;;;5080203;28;20038;-74
2021/06/14 01:56:43;;;;;;;16.15;8.55;;;12.60;99.90;;;;;;5112786;28;19916;-74
2021/06/14 01:59:14;;;;;;;13.88;8.95;;;12.60;99.90;;;;;;5114531;28;20122;-74
2021/06/14 02:01:43;;;;;;;15.57;9.23;;;12.60;99.90;;;;;;5114412;28;20132;-74
2021/06/14 02:04:09;;;;;;;16.65;9.15;;;12.60;99.90;;;;;;5114492;28;20047;-74
2021/06/14 02:06:42;;;;;;;14.13;8.65;;;12.60;99.90;;;;;;5113806;28;20031;-75
2021/06/14 02:09:17;;;;;;;15.27;8.85;;;12.70;99.90;;;;;;5105804;28;20145;-75
2021/06/14 02:11:47;;;;;;;15.43;9.20;;;12.70;99.90;;;;;;5112981;28;20045;-76
2021/06/14 02:14:18;;;;;;;12.75;8.43;;;12.70;99.90;;;;;;5114650;28;20032;-75
2021/06/14 02:16:46;;;;;;;13.55;8.32;;;12.70;99.90;;;;;;5111067;28;20035;-75
2021/06/14 02:19:13;;;;;;;16.85;9.90;;;12.60;99.90;;;;;;5095379;28;20063;-74
2021/06/14 02:21:43;;;;;;;13.25;9.15;;;12.60;99.90;;;;;;5113395;28;20106;-75
2021/06/14 02:24:10;;;;;;;18.73;9.93;;;12.60;99.90;;;;;;5095956;28;20043;-76
2021/06/14 02:26:37;;;;;;;12.07;8.32;;;12.60;99.90;;;;;;5093772;28;20544;-74
2021/06/14 02:29:03;;;;;;;15.25;9.10;;;12.70;99.90;;;;;;5113980;28;20404;-75
2021/06/14 02:31:30;;;;;;;13.48;9.60;;;12.70;99.90;;;;;;5113801;28;20039;-75
2021/06/14 02:33:56;;;;;;;15.63;9.10;;;12.80;99.90;;;;;;5114320;28;20469;-75
2021/06/14 02:36:23;;;;;;;13.20;9.32;;;12.80;99.90;;;;;;5113203;28;20036;-75
2021/06/14 02:38:49;;;;;;;17.52;8.93;;;12.80;99.90;;;;;;5095876;28;20102;-73
2021/06/14 02:41:16;;;;;;;15.20;9.25;;;12.70;99.90;;;;;;5094009;28;20495;-74
2021/06/14 02:43:43;;;;;;;18.77;8.73;;;12.80;99.90;;;;;;5113855;28;20039;-75
2021/06/14 02:46:12;;;;;;;14.80;8.93;;;12.80;99.90;;;;;;5113719;28;20473;-74
2021/06/14 02:48:41;;;;;;;16.55;9.65;;;12.70;99.90;;;;;;5114092;28;20035;-74
2021/06/14 02:51:07;;;;;;;15.23;9.48;;;12.70;99.90;;;;;;5113787;28;20100;-73
2021/06/14 02:53:34;;;;;;;17.73;10.18;;;12.70;99.90;;;;;;5095470;28;20107;-76
2021/06/14 02:56:03;;;;;;;14.93;9.73;;;12.70;99.90;;;;;;5094305;28;20055;-76
2021/06/14 02:58:33;;;;;;;15.68;9.43;;;12.80;99.90;;;;;;5113870;28;20434;-73
2021/06/14 03:01:00;;;;;;;15.95;10.38;;;12.70;99.90;;;;;;5112924;28;20172;-74
2021/06/14 03:03:26;;;;;;;17.35;9.35;;;12.80;99.90;;;;;;5113004;28;20452;-75
2021/06/14 03:05:53;;;;;;;;;;;12.80;99.90;;;;;;5113626;28;20123;-73
2021/06/14 03:08:21;;;;;;;13.00;8.57;;;12.80;99.90;;;;;;5113287;28;19947;-74
2021/06/14 03:10:48;;;;;;;16.48;8.25;;;12.80;99.90;;;;;;5111939;28;20043;-76
2021/06/14 03:13:14;;;;;;;13.20;7.35;;;12.80;99.90;;;;;;5102212;28;20100;-72
2021/06/14 03:15:41;;;;;;;15.13;8.10;;;12.80;99.90;;;;;;5113233;28;20111;-74
2021/06/14 03:18:07;;;;;;;;;;;12.90;99.90;;;;;;5107140;28;20032;-73
2021/06/14 03:20:33;;;;;;;10.55;7.07;;;12.80;99.90;;;;;;5112281;28;19972;-74
2021/06/14 03:22:59;;;;;;;11.07;7.65;;;12.80;99.90;;;;;;5113032;28;20110;-72
2021/06/14 03:25:25;;;;;;;13.68;7.88;;;12.80;99.90;;;;;;5111582;28;20118;-73
2021/06/14 03:27:51;;;;;;;;;;;12.80;99.90;;;;;;5095512;28;20521;-74
2021/06/14 03:30:20;;;;;;;12.00;7.32;;;12.70;99.90;;;;;;5113438;28;20367;-77
2021/06/14 03:32:48;;;;;;;12.50;8.88;;;12.70;99.90;;;;;;5113448;28;20027;-74
2021/06/14 03:35:19;;;;;;;14.05;8.15;;;12.70;99.90;;;;;;5112753;28;20035;-74
2021/06/14 03:37:46;;;;;;;11.73;8.07;;;12.70;99.90;;;;;;5104191;28;20069;-74
2021/06/14 03:40:14;;;;;;;14.88;7.95;;;12.70;99.90;;;;;;5093705;28;20468;-75
2021/06/14 03:42:40;;;;;;;11.75;7.22;;;12.80;99.90;;;;;;5112368;28;20042;-73
2021/06/14 03:45:08;;;;;;;14.77;7.32;;;12.80;99.90;;;;;;5113211;28;20117;-76
2021/06/14 03:47:34;;;;;;;12.35;7.00;;;12.80;99.90;;;;;;5094330;28;20074;-74
2021/06/14 03:50:00;;;;;;;11.10;6.47;;;13.00;99.90;;;;;;5113098;28;20047;-72
2021/06/14 03:52:25;;;;;;;12.35;7.15;;;13.00;99.90;;;;;;5112612;28;20434;-72
2021/06/14 03:54:51;;;;;;;;;;;13.10;99.90;;;;;;5112721;28;20035;-72
2021/06/14 03:57:17;;;;;;;11.73;6.28;;;13.20;99.90;;;;;;5112340;28;19924;-75
2021/06/14 03:59:43;;;;;;;;;;;13.20;99.90;;;;;;5112666;28;20051;-74
2021/06/14 04:02:09;;;;;;;10.95;7.18;;;13.30;99.90;;;;;;5112971;28;19916;-73
2021/06/14 04:04:44;;;;;;;14.77;7.68;;;13.40;99.90;;;;;;5112051;28;20381;-75
2021/06/14 04:07:09;;;;;;;11.65;7.15;;;13.50;99.90;;;;;;5112233;28;20035;-75
2021/06/14 04:09:36;;;;;;;10.63;6.70;;;13.60;99.90;;;;;;5112026;28;20051;-74
2021/06/14 04:12:03;;;;;;;12.27;7.28;;;13.60;99.90;;;;;;5111028;28;20044;-75
2021/06/14 04:14:29;;;;;;;10.57;6.80;;;13.70;99.90;;;;;;5111747;28;20035;-74
2021/06/14 04:16:55;;;;;;;;;;;13.80;99.90;;;;;;5112723;28;20116;-76
2021/06/14 04:19:21;;;;;;;12.68;6.65;;;13.80;99.90;;;;;;5097282;28;20352;-74
2021/06/14 04:21:47;;;;;;;;;;;13.90;99.90;;;;;;5111333;28;20058;-74
2021/06/14 04:24:12;;;;;;;12.60;7.55;;;13.90;99.90;;;;;;5112459;28;20249;-74
2021/06/14 04:26:38;;;;;;;14.55;7.65;;;14.00;99.90;;;;;;5110100;28;20043;-73
2021/06/14 04:29:04;;;;;;;;;;;14.00;99.90;;;;;;5112107;28;20042;-76
2021/06/14 04:31:36;;;;;;;13.10;7.95;;;14.10;99.90;;;;;;5111553;28;20383;-74
2021/06/14 04:34:02;;;;;;;10.48;6.95;;;14.10;99.90;;;;;;5112275;28;20044;-76
2021/06/14 04:36:28;;;;;;;9.93;6.50;;;14.30;99.90;;;;;;5111589;28;20391;-73
2021/06/14 04:38:53;;;;;;;11.43;7.15;;;14.40;99.90;;;;;;5093651;28;20110;-74
2021/06/14 04:41:19;;;;;;;;;;;14.40;99.90;;;;;;5110972;28;20032;-75
2021/06/14 04:43:45;;;;;;;11.70;7.20;;;14.50;99.90;;;;;;5110289;28;19915;-73
2021/06/14 04:46:11;;;;;;;11.85;7.00;;;14.60;99.90;;;;;;5112283;28;20507;-73
2021/06/14 04:48:37;;;;;;;10.02;6.95;;;14.70;99.90;;;;;;5111690;28;20040;-72
2021/06/14 04:51:03;;;;;;;11.88;6.65;;;14.80;99.90;;;;;;5112072;28;20063;-74
2021/06/14 04:53:29;;;;;;;9.95;6.25;;;14.90;99.90;;;;;;5112162;28;20053;-74
2021/06/14 04:55:54;;;;;;;11.70;6.35;;;15.00;99.90;;;;;;5110767;28;20050;-73
2021/06/14 04:58:20;;;;;;;12.48;6.30;;;15.10;99.90;;;;;;5112149;28;20042;-73
2021/06/14 05:00:46;;;;;;;;;;;15.20;99.90;;;;;;5111308;28;20465;-72
2021/06/14 05:03:12;;;;;;;10.90;5.70;;;15.30;99.90;;;;;;5093685;28;20357;-73
2021/06/14 05:05:38;;;;;;;11.30;5.95;;;15.50;99.90;;;;;;5096486;28;20491;-74
2021/06/14 05:08:04;;;;;;;;;;;15.50;99.90;;;;;;5113246;28;20039;-73
2021/06/14 05:10:30;;;;;;;13.80;6.00;;;15.60;99.90;;;;;;5111038;28;19927;-76
2021/06/14 05:12:56;;;;;;;10.50;6.00;;;15.80;99.90;;;;;;5105161;28;20036;-75
2021/06/14 05:15:21;;;;;;;;;;;15.90;99.90;;;;;;5112728;28;20062;-75
2021/06/14 05:17:47;;;;;;;10.85;5.80;;;16.00;99.90;;;;;;5103426;28;19945;-76
2021/06/14 05:20:14;;;;;;;9.63;5.55;;;16.10;99.90;;;;;;5093184;28;20043;-76
2021/06/14 05:22:40;;;;;;;9.70;5.85;;;16.20;99.90;;;;;;5111535;28;20047;-75
2021/06/14 05:25:06;;;;;;;7.80;5.68;;;16.40;99.90;;;;;;5110764;28;20141;-74
2021/06/14 05:27:32;;;;;;;;;;;16.70;99.90;;;;;;5082584;28;20473;-73
2021/06/14 05:29:57;;;;;;;9.20;5.38;;;16.50;99.90;;;;;;5100030;28;19927;-72
2021/06/14 05:32:23;;;;;;;8.68;5.30;;;16.70;99.90;;;;;;5086741;28;20035;-75
2021/06/14 05:34:49;;;;;;;;;;;16.80;99.90;;;;;;5111310;28;20035;-75
2021/06/14 05:37:14;;;;;;;8.55;5.50;;;16.90;99.90;;;;;;5111692;28;19919;-74
2021/06/14 05:39:40;;;;;;;;;;;17.00;99.90;;;;;;5110668;28;20085;-77
2021/06/14 05:42:07;;;;;;;8.13;4.82;;;17.10;99.90;;;;;;5092087;28;20039;-75
2021/06/14 05:44:32;;;;;;;11.70;5.72;;;17.10;99.90;;;;;;5111272;28;20145;-76
2021/06/14 05:46:59;;;;;;;10.80;5.65;;;17.30;99.90;;;;;;5111473;28;20048;-75
2021/06/14 05:49:24;;;;;;;;;;;17.40;99.90;;;;;;5112043;28;20147;-73
2021/06/14 05:51:50;;;;;;;10.35;5.53;;;17.40;99.90;;;;;;5111219;28;19915;-74
2021/06/14 05:54:16;;;;;;;;;;;17.40;99.90;;;;;;5111959;28;20389;-75
2021/06/14 05:56:42;;;;;;;8.18;5.00;;;17.50;99.90;;;;;;5094405;28;19920;-77
2021/06/14 05:59:08;;;;;;;;;;;17.60;99.90;;;;;;5115018;28;20473;-74
2021/06/14 06:01:33;;;;;;;10.30;5.32;;;17.70;99.90;;;;;;5114886;28;19922;-75
2021/06/14 06:03:59;;;;;;;;;;;17.80;99.90;;;;;;5114855;28;20106;-76
2021/06/14 06:06:25;;;;;;;8.05;4.97;;;17.90;99.90;;;;;;5114436;28;20280;-75
2021/06/14 06:08:51;;;;;;;;;;;17.90;99.90;;;;;;5114958;28;20036;-75
2021/06/14 06:11:17;;;;;;;7.70;4.70;;;18.00;99.90;;;;;;5113060;28;19954;-74
2021/06/14 06:13:43;;;;;;;10.93;5.13;;;18.20;99.10;;;;;;5114029;28;20074;-73
2021/06/14 06:16:09;;;;;;;;;;;18.20;98.80;;;;;;5114306;28;20373;-75
2021/06/14 06:18:35;;;;;;;6.53;4.63;;;18.30;98.50;;;;;;5114046;28;19966;-74
2021/06/14 06:21:01;;;;;;;8.18;4.93;;;18.40;98.70;;;;;;5095472;28;20044;-76
2021/06/14 06:23:27;;;;;;;9.70;5.13;;;18.50;99.10;;;;;;5113797;28;20045;-77
2021/06/14 06:25:53;;;;;;;;;;;18.60;98.70;;;;;;5112939;28;20400;-76
2021/06/14 06:28:18;;;;;;;9.23;5.15;;;18.70;98.80;;;;;;5113849;28;19916;-76
2021/06/14 06:30:44;;;;;;;;;;;18.90;98.00;;;;;;5113913;28;20046;-75
2021/06/14 06:33:10;;;;;;;9.13;5.68;;;19.00;98.40;;;;;;5113935;28;19922;-74
2021/06/14 06:35:36;;;;;;;;;;;19.10;96.20;;;;;;5095995;28;20032;-74
2021/06/14 06:38:02;;;;;;;10.43;5.28;;;19.30;96.70;;;;;;5096785;28;19947;-75
2021/06/14 06:40:28;;;;;;;10.77;4.93;;;19.40;96.10;;;;;;5112917;28;20130;-75
2021/06/14 06:42:56;;;;;;;6.10;4.68;;;19.50;96.30;;;;;;5113507;28;20038;-74
2021/06/14 06:45:24;;;;;;;9.35;5.13;;;19.60;95.80;;;;;;5114181;28;20481;-75
2021/06/14 06:47:51;;;;;;;8.63;4.70;;;19.80;94.30;;;;;;5113150;28;20380;-75
2021/06/14 06:50:17;;;;;;;8.85;4.70;;;19.80;94.00;;;;;;5113410;28;20040;-74
2021/06/14 06:52:43;;;;;;;10.75;5.07;;;19.90;93.60;;;;;;5113499;28;20537;-73
2021/06/14 06:55:12;;;;;;;9.68;5.18;;;20.10;92.70;;;;;;5112424;28;20036;-76
2021/06/14 06:57:39;;;;;;;7.82;4.97;;;20.10;93.30;;;;;;5113103;28;20051;-77
2021/06/14 07:00:06;;;;;;;9.73;5.00;;;20.30;91.90;;;;;;5095201;28;20039;-74
2021/06/14 07:02:32;;;;;;;9.88;4.97;;;20.40;91.00;;;;;;5095105;28;20035;-74
2021/06/14 07:04:58;;;;;;;7.45;4.47;;;20.50;91.30;;;;;;5094680;28;20038;-75
2021/06/14 07:07:24;;;;;;;9.80;5.15;;;20.60;89.70;;;;;;5094268;28;20039;-73
2021/06/14 07:09:50;;;;;;;9.13;4.70;;;20.60;89.70;;;;;;5112311;28;20481;-75
2021/06/14 07:12:15;;;;;;;;;;;20.70;89.10;;;;;;5113986;28;20036;-73
2021/06/14 07:14:41;;;;;;;10.68;4.82;;;20.80;88.10;;;;;;5112928;28;19938;-76
2021/06/14 07:17:08;;;;;;;8.88;5.15;;;20.80;86.20;;;;;;5095068;28;20386;-74
2021/06/14 07:19:33;;;;;;;8.40;4.43;;;20.90;84.50;;;;;;5113370;28;20086;-76
2021/06/14 07:21:59;;;;;;;10.07;4.80;;;21.00;85.00;;;;;;5112132;28;21059;-73
2021/06/14 07:24:25;;;;;;;;;;;21.10;82.60;;;;;;5113674;28;20039;-73
2021/06/14 07:26:51;;;;;;;9.65;4.57;;;21.10;82.90;;;;;;5111593;28;19922;-72
2021/06/14 07:29:17;;;;;;;7.75;4.97;;;21.20;83.00;;;;;;5113460;28;20039;-73
2021/06/14 07:31:42;;;;;;;6.97;4.60;;;21.30;80.70;;;;;;5112281;28;20493;-74
2021/06/14 07:34:08;;;;;;;7.57;4.63;;;21.40;81.50;;;;;;5094708;28;20035;-75
2021/06/14 07:36:35;;;;;;;8.98;5.40;;;21.50;80.90;;;;;;5094496;28;20473;-76
2021/06/14 07:39:01;;;;;;;8.95;4.82;;;21.60;80.30;;;;;;5112428;28;20085;-74
2021/06/14 07:41:27;;;;;;;8.18;4.75;;;21.70;79.00;;;;;;5085752;28;20046;-76
2021/06/14 07:43:53;;;;;;;9.00;4.78;;;21.80;80.20;;;;;;5093657;28;20036;-74
2021/06/14 07:46:19;;;;;;;7.38;5.18;;;21.90;79.20;;;;;;5113026;28;20043;-76
2021/06/14 07:48:45;;;;;;;11.48;4.93;;;22.10;78.40;;;;;;5111927;28;20048;-75
2021/06/14 07:51:12;;;;;;;7.20;4.63;;;22.10;75.40;;;;;;5112615;28;20040;-76
2021/06/14 07:53:37;;;;;;;8.15;4.38;;;22.10;74.40;;;;;;5112982;28;20496;-74
2021/06/14 07:56:06;;;;;;;9.57;4.65;;;22.10;75.00;;;;;;5111466;28;20046;-74
2021/06/14 07:58:33;;;;;;;11.55;5.00;;;22.10;73.30;;;;;;5112728;28;20092;-77
2021/06/14 08:01:00;;;;;;;6.93;4.53;;;22.20;73.40;;;;;;5090341;28;20111;-74
2021/06/14 08:03:28;;;;;;;9.18;4.45;;;22.20;73.40;;;;;;5094085;28;20101;-75
2021/06/14 08:05:54;;;;;;;7.10;4.72;;;22.30;73.20;;;;;;5111308;28;20067;-75
2021/06/14 08:08:20;;;;;;;7.47;4.53;;;22.40;71.70;;;;;;5093993;28;20447;-74
2021/06/14 08:10:47;;;;;;;;;;;22.40;72.10;;;;;;5111959;28;20477;-74
2021/06/14 08:13:13;;;;;;;8.23;4.85;;;22.50;70.50;;;;;;5112590;28;19915;-74
2021/06/14 08:15:39;;;;;;;9.18;5.05;;;22.50;70.10;;;;;;5112701;28;20035;-76
2021/06/14 08:26:02;;;;;;;7.28;4.53;;;22.80;73.00;;;;;;5110903;28;20059;-74
2021/06/14 08:28:28;;;;;;;5.95;4.75;;;23.00;72.10;;;;;;5111650;28;20074;-75
2021/06/14 08:30:54;;;;;;;8.55;4.80;;;23.10;69.20;;;;;;5111271;28;20061;-73
2021/06/14 08:33:20;;;;;;;9.43;4.60;;;23.10;66.20;;;;;;5093934;28;20070;-76
2021/06/14 08:35:46;;;;;;;8.80;4.30;;;23.10;67.10;;;;;;5111576;28;20054;-74
2021/06/14 08:38:11;;;;;;;9.20;4.63;;;23.10;68.50;;;;;;5094027;28;20047;-76
2021/06/14 08:40:37;;;;;;;8.05;4.47;;;23.10;68.80;;;;;;5103491;28;20039;-75
2021/06/14 08:43:06;;;;;;;8.93;4.60;;;23.20;68.80;;;;;;5112402;28;20407;-74
2021/06/14 08:45:37;;;;;;;7.28;4.10;;;23.30;68.10;;;;;;5094586;28;20499;-74
2021/06/14 08:48:06;;;;;;;9.88;4.28;;;23.40;66.00;;;;;;5111076;28;20031;-76
2021/06/14 08:50:33;;;;;;;9.05;4.65;;;23.40;65.30;;;;;;5111535;28;20048;-76
2021/06/14 08:52:59;;;;;;;8.30;4.82;;;23.30;67.30;;;;;;5111396;28;20362;-75
2021/06/14 08:55:26;;;;;;;10.23;3.92;;;23.30;69.00;;;;;;5110551;28;20384;-74
2021/06/14 08:57:52;;;;;;;7.32;4.70;;;23.50;66.40;;;;;;5110985;28;20532;-74
2021/06/14 09:00:22;;;;;;;6.35;4.00;;;23.60;65.20;;;;;;5111404;28;20078;-75
2021/06/14 09:02:48;;;;;;;6.88;4.32;;;23.70;66.70;;;;;;5111016;28;20042;-74
2021/06/14 09:05:16;;;;;;;8.82;4.55;;;23.80;65.20;;;;;;5111126;28;20040;-76
2021/06/14 09:07:44;;;;;;;8.57;5.18;;;23.80;64.70;;;;;;5111784;28;20089;-73
2021/06/14 09:10:28;;;;;;;8.77;5.25;;;23.80;65.00;;;;;;5109759;28;20043;-75
2021/06/14 09:12:55;;;;;;;10.23;4.95;;;23.80;64.30;;;;;;5112097;28;20039;-76
2021/06/14 09:15:26;;;;;;;10.23;4.88;;;23.90;63.10;;;;;;5111520;28;20452;-76
2021/06/14 09:17:54;;;;;;;7.38;4.65;;;23.80;64.10;;;;;;5118065;28;20035;-74
2021/06/14 09:20:23;;;;;;;8.20;4.95;;;23.80;63.80;;;;;;5112730;28;20062;-73
2021/06/14 09:22:50;;;;;;;8.90;5.28;;;23.80;64.50;;;;;;5112010;28;20090;-75
2021/06/14 09:25:17;;;;;;;10.48;5.35;;;23.90;65.60;;;;;;5110741;28;20039;-75
2021/06/14 09:27:52;;;;;;;10.10;5.38;;;24.00;64.10;;;;;;5111430;28;20096;-71
2021/06/14 09:30:21;;;;;;;7.90;4.22;;;24.10;64.50;;;;;;5113944;28;20066;-75
2021/06/14 09:32:53;;;;;;;11.10;5.30;;;24.20;66.10;;;;;;5115284;28;20036;-75
2021/06/14 09:35:21;;;;;;;7.78;5.35;;;24.40;63.50;;;;;;5114781;28;20039;-74
2021/06/14 09:37:57;;;;;;;7.50;5.55;;;24.40;61.20;;;;;;5103661;28;20066;-75
2021/06/14 09:40:50;;;;;;;8.27;5.93;;;24.40;61.60;;;;;;5113890;28;20040;-74
2021/06/14 09:43:38;;;;;;;10.05;6.30;;;24.40;62.10;;;;;;5113754;28;20122;-73
2021/06/14 09:46:16;;;;;;;8.60;5.60;;;24.40;62.10;;;;;;5119241;28;20042;-72
2021/06/14 09:48:42;;;;;;;10.73;5.60;;;24.40;63.80;;;;;;5104675;28;20028;-76
2021/06/14 09:51:09;;;;;;;11.20;5.82;;;24.50;62.50;;;;;;5114300;28;20050;-76
2021/06/14 09:53:50;;;;;;;8.98;5.55;;;24.50;62.30;;;;;;5115032;28;20035;-73
2021/06/14 09:56:28;;;;;;;10.77;5.60;;;24.40;63.10;;;;;;5113789;28;20032;-74
2021/06/14 09:58:56;;;;;;;7.75;5.20;;;24.60;62.70;;;;;;5114285;28;20036;-75
2021/06/14 10:01:34;;;;;;;7.82;5.38;;;24.60;63.00;;;;;;5114746;28;20047;-75
2021/06/14 10:04:04;;;;;;;9.43;5.80;;;24.80;62.40;;;;;;5114559;28;20035;-76
2021/06/14 10:06:39;;;;;;;8.88;5.70;;;24.80;60.90;;;;;;5114576;28;20042;-76
2021/06/14 10:09:16;;;;;;;8.25;4.75;;;24.70;61.30;;;;;;5113796;28;20054;-73
2021/06/14 10:11:44;;;;;;;8.68;4.82;;;24.80;61.00;;;;;;5113401;28;20393;-74
2021/06/14 10:14:21;;;;;;;10.52;5.30;;;24.80;62.70;;;;;;5114177;28;20450;-76
2021/06/14 10:16:49;;;;;;;9.35;4.93;;;25.00;61.20;;;;;;5115070;28;20063;-77
2021/06/14 10:19:17;;;;;;;10.82;5.95;;;25.20;59.80;;;;;;5109064;28;20032;-77
2021/06/14 10:21:46;;;;;;;11.45;5.40;;;25.20;59.70;;;;;;5110286;28;20106;-76
2021/06/14 10:24:15;;;;;;;6.85;4.70;;;25.10;58.70;;;;;;5114468;28;20046;-75
2021/06/14 10:26:43;;;;;;;10.80;5.55;;;25.10;60.00;;;;;;5113188;28;20035;-74
2021/06/14 10:29:12;;;;;;;7.72;4.55;;;25.20;60.50;;;;;;5114061;28;20036;-76
2021/06/14 10:31:40;;;;;;;7.68;4.45;;;25.40;58.40;;;;;;5114525;28;20035;-75
2021/06/14 10:34:06;;;;;;;9.88;5.68;;;25.40;58.80;;;;;;5100119;28;20059;-76
2021/06/14 10:36:33;;;;;;;9.85;5.05;;;25.50;57.10;;;;;;5113886;28;20093;-77
2021/06/14 10:39:01;;;;;;;8.93;4.80;;;25.40;57.90;;;;;;5113690;28;20035;-75
2021/06/14 10:41:27;;;;;;;7.82;5.00;;;25.50;58.10;;;;;;5111865;28;20039;-75
2021/06/14 10:43:54;;;;;;;6.25;4.82;;;25.50;57.60;;;;;;5113882;28;20119;-74
2021/06/14 10:46:22;;;;;;;7.50;4.88;;;25.60;57.80;;;;;;5121630;28;20031;-75
2021/06/14 10:48:54;;;;;;;9.57;5.40;;;25.70;56.00;;;;;;5114198;28;20039;-74
2021/06/14 10:51:21;;;;;;;7.97;4.53;;;25.60;56.30;;;;;;5113717;28;20387;-77
2021/06/14 10:53:51;;;;;;;11.07;5.18;;;25.60;57.00;;;;;;5114103;28;20115;-76
2021/06/14 10:56:18;;;;;;;9.18;4.82;;;25.80;55.40;;;;;;5112628;28;20065;-78
2021/06/14 10:58:57;;;;;;;8.50;5.28;;;25.80;55.50;;;;;;5113980;28;20039;-75
2021/06/14 11:01:35;;;;;;;7.35;4.78;;;25.80;57.30;;;;;;5113583;28;20102;-77
2021/06/14 11:04:01;;;;;;;8.25;4.40;;;26.00;57.10;;;;;;5113508;28;20089;-74
2021/06/14 11:06:29;;;;;;;7.97;4.97;;;26.20;57.10;;;;;;5113782;28;20108;-76
2021/06/14 11:09:04;;;;;;;7.78;4.50;;;26.40;56.40;;;;;;5113306;28;20040;-75
2021/06/14 11:11:31;;;;;;;7.60;4.35;;;26.50;54.30;;;;;;5099337;28;20047;-76
2021/06/14 11:13:57;;;;;;;6.95;4.18;;;26.50;52.30;;;;;;5095186;28;20046;-76
2021/06/14 11:16:35;;;;;;;9.23;4.97;;;26.40;53.10;;;;;;5114188;28;20341;-76
2021/06/14 11:19:02;;;;;;;8.02;5.13;;;26.40;53.30;;;;;;5113209;28;20039;-77
2021/06/14 11:21:28;;;;;;;10.05;5.15;;;26.40;53.80;;;;;;5109551;28;20484;-74
2021/06/14 11:24:11;;;;;;;8.38;5.25;;;26.40;54.60;;;;;;5094616;28;20047;-75
2021/06/14 11:26:38;;;;;;;11.77;5.70;;;26.60;54.10;;;;;;5111818;28;20040;-77
2021/06/14 11:29:17;;;;;;;8.82;5.63;;;26.60;53.60;;;;;;5094357;28;20485;-76
2021/06/14 11:32:01;;;;;;;11.82;6.30;;;26.40;54.00;;;;;;5113120;28;20142;-74
2021/06/14 11:34:27;;;;;;;9.05;6.10;;;26.30;55.80;;;;;;5101839;28;20036;-74
2021/06/14 11:36:57;;;;;;;9.50;5.40;;;26.40;55.90;;;;;;5111466;28;20397;-75
2021/06/14 11:39:24;;;;;;;9.02;5.18;;;26.50;56.10;;;;;;5090109;28;20040;-74
2021/06/14 11:41:53;;;;;;;10.88;6.43;;;26.60;55.10;;;;;;5107965;28;20031;-73
2021/06/14 11:44:24;;;;;;;8.88;4.88;;;26.60;56.10;;;;;;5112565;28;20039;-74
2021/06/14 11:47:14;;;;;;;7.97;5.00;;;26.70;54.90;;;;;;5112760;28;20031;-75
2021/06/14 11:49:43;;;;;;;8.27;6.10;;;26.60;56.40;;;;;;5112236;28;20479;-77
2021/06/14 11:52:16;;;;;;;11.07;5.75;;;27.00;56.10;;;;;;5094164;28;20040;-76
2021/06/14 11:54:42;;;;;;;6.95;5.00;;;27.10;56.00;;;;;;5112391;28;20084;-75
2021/06/14 11:57:08;;;;;;;9.68;6.60;;;27.10;56.60;;;;;;5111474;28;20469;-76
2021/06/14 11:59:36;;;;;;;8.50;5.88;;;27.20;55.60;;;;;;5093577;28;20056;-74
2021/06/14 12:02:18;;;;;;;8.50;6.00;;;27.20;55.40;;;;;;5112121;28;20353;-76
2021/06/14 12:04:44;;;;;;;11.95;6.40;;;27.20;56.10;;;;;;5109945;28;20043;-74
2021/06/14 12:07:10;;;;;;;12.57;6.57;;;27.30;56.00;;;;;;5111991;28;20036;-74
2021/06/14 12:09:40;;;;;;;11.02;6.85;;;27.30;55.80;;;;;;5112018;28;20044;-74
2021/06/14 12:12:07;;;;;;;9.13;6.53;;;27.40;55.90;;;;;;5110918;28;20467;-75
2021/06/14 12:14:33;;;;;;;12.60;6.88;;;27.50;56.00;;;;;;5111992;28;20059;-76
2021/06/14 12:17:05;;;;;;;11.23;7.53;;;27.60;55.20;;;;;;5111521;28;20036;-73
2021/06/14 12:19:36;;;;;;;10.27;7.10;;;27.70;55.30;;;;;;5111937;28;20036;-75
2021/06/14 12:22:09;;;;;;;9.13;6.60;;;27.80;54.80;;;;;;5107380;28;20415;-73
2021/06/14 12:24:36;;;;;;;11.27;6.72;;;27.80;54.20;;;;;;5112196;28;20036;-74
2021/06/14 12:27:07;;;;;;;11.80;6.72;;;27.80;53.90;;;;;;5101272;28;20034;-75
2021/06/14 12:29:34;;;;;;;9.90;7.47;;;27.70;54.50;;;;;;5112110;28;20081;-72
2021/06/14 12:32:09;;;;;;;11.60;7.78;;;27.80;53.60;;;;;;5111467;28;20404;-74
2021/06/14 12:34:40;;;;;;;11.77;8.25;;;27.70;54.20;;;;;;5112220;28;20061;-74
2021/06/14 12:37:10;;;;;;;13.20;7.63;;;27.70;53.20;;;;;;5111499;28;20032;-74
2021/06/14 12:39:37;;;;;;;13.75;8.05;;;27.70;54.00;;;;;;5111617;28;20092;-77
2021/06/14 12:42:04;;;;;;;9.50;7.15;;;27.90;53.90;;;;;;5110235;28;20057;-74
2021/06/14 12:44:29;;;;;;;15.10;7.50;;;28.10;54.30;;;;;;5110908;28;20040;-75
2021/06/14 12:46:56;;;;;;;10.45;7.95;;;28.30;54.40;;;;;;5112158;28;20042;-76
2021/06/14 12:49:31;;;;;;;11.80;8.25;;;28.50;54.10;;;;;;5111415;28;20043;-75
2021/06/14 12:51:57;;;;;;;11.32;7.45;;;28.80;53.30;;;;;;5111606;28;20035;-76
2021/06/14 12:54:25;;;;;;;9.63;7.07;;;28.80;53.00;;;;;;5111901;28;20155;-74
2021/06/14 12:56:55;;;;;;;12.80;7.60;;;29.00;53.30;;;;;;5111220;28;20038;-74
2021/06/14 12:59:22;;;;;;;11.15;7.10;;;29.30;52.30;;;;;;5111005;28;20032;-77
2021/06/14 13:01:48;;;;;;;9.57;7.60;;;29.20;51.70;;;;;;5111855;28;20082;-73